Time;durP1;ratioP1;P1;durP2;ratioP2;P2;SDS_P1;SDS_P2;PMS_P1;PMS_P2;Temp;Humidity;BMP_temperature;BMP_pressure;BME280_temperature;BME280_humidity;BME280_pressure;Samples;Min_cycle;Max_cycle;Signal;HPM_P1;HPM_P2
2021/04/21 00:02:21;;;;;;;19.33;14.05;;;7.30;93.30;;;;;;5052891;28;20096;-78
2021/04/21 00:04:49;;;;;;;17.30;11.88;;;7.30;93.40;;;;;;5051896;28;20025;-77
2021/04/21 00:07:20;;;;;;;18.52;13.77;;;7.30;93.40;;;;;;5051720;28;20112;-77
2021/04/21 00:09:47;;;;;;;19.75;13.98;;;7.30;93.50;;;;;;5053448;28;20100;-77
2021/04/21 00:12:15;;;;;;;16.73;13.30;;;7.20;93.50;;;;;;5053037;28;20025;-77
2021/04/21 00:14:41;;;;;;;23.38;14.23;;;7.20;93.60;;;;;;5051921;28;20028;-77
2021/04/21 00:17:08;;;;;;;18.00;13.18;;;7.10;93.60;;;;;;5051831;28;20032;-77
2021/04/21 00:19:36;;;;;;;20.08;12.93;;;7.10;93.70;;;;;;5051612;28;20029;-77
2021/04/21 00:22:04;;;;;;;18.08;13.70;;;7.10;93.80;;;;;;5051801;28;20831;-78
2021/04/21 00:24:31;;;;;;;27.02;15.70;;;7.10;93.80;;;;;;5051712;28;20115;-77
2021/04/21 00:26:57;;;;;;;20.67;14.63;;;7.00;94.20;;;;;;5053186;28;20031;-77
2021/04/21 00:29:24;;;;;;;22.90;14.98;;;6.90;94.00;;;;;;5055274;28;20017;-78
2021/04/21 00:31:51;;;;;;;22.63;14.73;;;6.90;94.00;;;;;;5055676;28;20033;-78
2021/04/21 00:34:22;;;;;;;24.52;16.63;;;6.80;94.10;;;;;;5055427;28;20029;-78
2021/04/21 00:36:49;;;;;;;22.10;14.93;;;6.80;94.30;;;;;;5055315;28;20117;-78
2021/04/21 00:39:17;;;;;;;22.00;15.18;;;6.70;94.20;;;;;;5055209;28;20037;-77
2021/04/21 00:41:50;;;;;;;22.67;15.55;;;6.70;94.20;;;;;;5056166;28;20419;-77
2021/04/21 00:44:45;;;;;;;25.35;17.52;;;6.60;94.50;;;;;;5055068;28;20471;-77
2021/04/21 00:47:29;;;;;;;27.40;18.35;;;6.50;94.70;;;;;;5056140;28;20482;-78
2021/04/21 00:50:08;;;;;;;26.55;18.02;;;6.40;94.80;;;;;;5056015;28;20557;-77
2021/04/21 00:52:56;;;;;;;23.20;16.85;;;6.40;94.90;;;;;;5054920;28;20036;-78
2021/04/21 00:55:42;;;;;;;20.80;15.43;;;6.40;94.70;;;;;;5056266;28;20056;-78
2021/04/21 00:58:43;;;;;;;25.20;17.60;;;6.30;94.70;;;;;;5054824;28;20454;-78
2021/04/21 01:01:10;;;;;;;21.77;15.55;;;6.30;95.30;;;;;;5054801;28;20056;-78
2021/04/21 01:03:37;;;;;;;24.52;17.77;;;6.30;94.90;;;;;;5055735;28;20017;-78
2021/04/21 01:06:07;;;;;;;26.42;17.55;;;6.20;95.00;;;;;;5054942;28;20028;-78
2021/04/21 01:08:42;;;;;;;27.43;18.17;;;6.20;95.00;;;;;;5054624;28;20067;-78
2021/04/21 01:11:13;;;;;;;28.35;19.63;;;6.20;94.90;;;;;;5055781;28;20021;-77
2021/04/21 01:13:47;;;;;;;26.85;17.52;;;6.20;95.40;;;;;;5056171;28;20466;-78
2021/04/21 01:16:14;;;;;;;26.67;18.02;;;6.20;95.00;;;;;;5056136;28;20032;-78
2021/04/21 01:18:43;;;;;;;25.25;17.63;;;6.10;95.20;;;;;;5054679;28;20065;-78
2021/04/21 01:21:14;;;;;;;20.57;15.43;;;6.10;95.10;;;;;;5055737;28;20045;-78
2021/04/21 01:23:42;;;;;;;;;;;6.10;94.90;;;;;;5055068;28;20025;-78
2021/04/21 01:26:27;;;;;;;29.35;20.33;;;6.20;94.80;;;;;;5055785;28;19904;-78
2021/04/21 01:28:56;;;;;;;23.58;16.27;;;6.20;95.10;;;;;;5055725;28;20025;-78
2021/04/21 01:31:23;;;;;;;31.27;18.20;;;6.20;94.80;;;;;;5055615;28;20024;-78
2021/04/21 01:33:52;;;;;;;22.90;16.42;;;6.20;94.70;;;;;;5053929;28;20489;-77
2021/04/21 01:36:22;;;;;;;23.98;17.17;;;6.20;94.80;;;;;;5054350;28;20029;-77
2021/04/21 01:38:50;;;;;;;28.05;18.60;;;6.20;94.90;;;;;;5055528;28;20096;-77
2021/04/21 01:41:19;;;;;;;24.02;16.65;;;6.10;95.10;;;;;;5053931;28;20047;-78
2021/04/21 01:44:10;;;;;;;25.70;18.38;;;6.10;95.20;;;;;;5053923;28;20098;-78
2021/04/21 01:46:40;;;;;;;26.50;18.60;;;6.10;95.30;;;;;;5052177;28;20041;-78
2021/04/21 01:49:33;;;;;;;25.98;18.52;;;6.00;95.50;;;;;;5053583;28;20489;-78
2021/04/21 01:52:09;;;;;;;25.48;17.13;;;6.00;95.40;;;;;;5048339;28;20025;-78
2021/04/21 01:54:38;;;;;;;26.80;18.92;;;6.00;95.30;;;;;;5053808;28;20486;-78
2021/04/21 01:57:27;;;;;;;27.83;19.02;;;5.90;95.30;;;;;;5053832;28;20024;-78
2021/04/21 02:00:01;;;;;;;25.63;17.23;;;5.90;95.50;;;;;;5053898;28;20032;-78
2021/04/21 02:02:36;;;;;;;28.73;18.35;;;5.90;95.40;;;;;;5053696;28;20430;-77
2021/04/21 02:05:17;;;;;;;32.28;20.25;;;5.90;95.50;;;;;;5054951;28;20052;-77
2021/04/21 02:08:20;;;;;;;27.70;17.15;;;6.00;95.20;;;;;;5054841;28;20029;-78
2021/04/21 02:11:11;;;;;;;27.17;17.02;;;6.10;95.10;;;;;;5053977;28;20021;-78
2021/04/21 02:13:47;;;;;;;30.33;18.92;;;6.10;95.00;;;;;;5053468;28;20468;-78
2021/04/21 02:16:18;;;;;;;33.15;21.20;;;6.10;95.10;;;;;;5054559;28;20021;-78
2021/04/21 02:18:52;;;;;;;33.28;19.85;;;6.20;95.50;;;;;;5054849;28;20021;-78
2021/04/21 02:21:47;;;;;;;30.33;20.45;;;6.20;95.30;;;;;;5053276;28;20029;-78
2021/04/21 02:24:21;;;;;;;27.88;19.08;;;6.20;95.80;;;;;;5052879;28;20123;-78
2021/04/21 02:27:05;;;;;;;27.27;18.42;;;6.20;95.20;;;;;;5054340;28;20021;-78
2021/04/21 02:29:58;;;;;;;27.65;18.77;;;6.30;95.00;;;;;;5054378;28;20017;-78
2021/04/21 02:32:36;;;;;;;30.30;21.02;;;6.40;94.80;;;;;;5035190;28;20033;-78
2021/04/21 02:35:23;;;;;;;30.27;20.42;;;6.50;95.20;;;;;;5052855;28;20028;-78
2021/04/21 02:38:19;;;;;;;27.40;18.20;;;6.50;95.00;;;;;;5034454;28;20692;-78
2021/04/21 02:41:23;;;;;;;31.13;20.50;;;6.50;95.00;;;;;;5033623;28;20045;-78
2021/04/21 02:44:20;;;;;;;30.77;21.48;;;6.50;95.20;;;;;;5051967;28;20049;-77
2021/04/21 02:46:54;;;;;;;40.08;24.98;;;6.60;95.70;;;;;;5053670;28;20028;-78
2021/04/21 02:49:35;;;;;;;43.42;27.38;;;6.50;95.40;;;;;;5051717;28;20023;-78
2021/04/21 02:52:18;;;;;;;45.25;27.70;;;6.50;95.40;;;;;;5051592;28;20028;-78
2021/04/21 02:55:06;;;;;;;41.90;25.98;;;6.40;95.50;;;;;;5052716;28;20179;-78
2021/04/21 02:57:55;;;;;;;42.47;26.58;;;6.40;95.50;;;;;;5052727;28;20025;-77
2021/04/21 03:00:29;;;;;;;36.08;22.70;;;6.30;95.60;;;;;;5052141;28;20025;-78
2021/04/21 03:03:22;;;;;;;42.13;27.02;;;6.20;95.40;;;;;;5053076;28;20024;-78
2021/04/21 03:05:54;;;;;;;34.38;21.38;;;6.20;95.60;;;;;;5052115;28;20017;-78
2021/04/21 03:08:34;;;;;;;35.38;23.27;;;6.10;95.50;;;;;;5052679;28;20021;-78
2021/04/21 03:11:23;;;;;;;43.22;26.05;;;6.10;95.50;;;;;;5052968;28;20049;-78
2021/04/21 03:14:13;;;;;;;40.03;24.90;;;5.90;95.70;;;;;;5052491;28;20111;-78
2021/04/21 03:16:47;;;;;;;39.60;25.10;;;5.90;95.70;;;;;;5053452;28;20024;-78
2021/04/21 03:19:17;;;;;;;38.75;25.30;;;5.90;95.80;;;;;;5052128;28;20391;-77
2021/04/21 03:21:48;;;;;;;41.72;27.30;;;5.80;95.90;;;;;;5052194;28;20447;-78
2021/04/21 03:24:35;;;;;;;42.15;25.63;;;5.80;95.90;;;;;;5052338;28;20063;-78
2021/04/21 03:27:05;;;;;;;40.00;25.40;;;5.80;96.00;;;;;;5053233;28;20467;-77
2021/04/21 03:29:37;;;;;;;42.93;28.03;;;5.80;96.00;;;;;;5053286;28;20032;-78
2021/04/21 03:32:08;;;;;;;45.85;28.27;;;5.70;96.20;;;;;;5053232;28;20024;-78
2021/04/21 03:34:37;;;;;;;47.05;31.17;;;5.70;96.30;;;;;;5053511;28;20025;-78
2021/04/21 03:37:08;;;;;;;41.33;26.23;;;5.70;96.40;;;;;;5051721;28;20040;-78
2021/04/21 03:39:34;;;;;;;42.17;27.27;;;5.80;96.40;;;;;;5053320;28;20147;-79
2021/04/21 03:42:00;;;;;;;43.47;24.73;;;5.80;96.30;;;;;;5051414;28;20117;-76
2021/04/21 03:44:26;;;;;;;42.00;24.63;;;5.80;96.10;;;;;;5051900;28;20530;-78
2021/04/21 03:46:52;;;;;;;48.40;30.35;;;5.80;95.90;;;;;;5053163;28;20020;-81
2021/04/21 03:49:18;;;;;;;37.40;23.75;;;5.90;95.80;;;;;;5052104;28;20156;-80
2021/04/21 03:51:43;;;;;;;34.83;22.65;;;6.00;95.50;;;;;;5051775;28;20474;-80
2021/04/21 03:54:11;;;;;;;35.17;22.70;;;6.00;95.40;;;;;;5051690;28;20021;-81
2021/04/21 03:56:42;;;;;;;40.05;25.38;;;6.10;95.30;;;;;;5051648;28;20029;-81
2021/04/21 03:59:08;;;;;;;;;;;6.10;95.40;;;;;;5053659;28;20493;-80
2021/04/21 04:01:37;;;;;;;36.95;23.30;;;6.10;95.70;;;;;;5051662;28;19960;-80
2021/04/21 04:04:09;;;;;;;38.45;23.98;;;6.10;95.40;;;;;;5054820;28;20096;-81
2021/04/21 04:06:41;;;;;;;40.15;23.33;;;6.20;95.30;;;;;;5055719;28;20055;-81
2021/04/21 04:09:09;;;;;;;37.70;23.77;;;6.30;95.20;;;;;;5055710;28;20025;-79
2021/04/21 04:11:38;;;;;;;33.55;22.70;;;6.30;95.20;;;;;;5057112;28;20021;-81
2021/04/21 04:14:14;;;;;;;37.92;24.05;;;6.40;95.20;;;;;;5055493;28;20029;-80
2021/04/21 04:16:43;;;;;;;34.25;21.65;;;6.40;95.30;;;;;;5055352;28;20075;-80
2021/04/21 04:19:11;;;;;;;36.00;22.55;;;6.50;95.30;;;;;;5056755;28;20192;-80
2021/04/21 04:21:39;;;;;;;38.17;23.65;;;6.60;95.20;;;;;;5056950;28;20025;-81
2021/04/21 04:24:12;;;;;;;39.50;24.85;;;6.70;95.20;;;;;;5056992;28;20419;-81
2021/04/21 04:26:42;;;;;;;40.92;25.30;;;6.80;95.00;;;;;;5055564;28;20029;-81
2021/04/21 04:29:08;;;;;;;40.47;26.40;;;6.90;94.80;;;;;;5055225;28;20028;-80
2021/04/21 04:31:39;;;;;;;42.92;26.50;;;7.00;94.80;;;;;;5055374;28;20036;-81
2021/04/21 04:34:05;;;;;;;;;;;7.00;94.80;;;;;;5055871;28;20025;-81
2021/04/21 04:36:36;;;;;;;33.85;23.33;;;7.10;94.80;;;;;;5056327;28;20259;-80
2021/04/21 04:39:05;;;;;;;41.10;25.88;;;7.20;94.80;;;;;;5054372;28;20025;-70
2021/04/21 04:41:31;;;;;;;43.17;27.45;;;7.30;94.90;;;;;;5052472;28;20491;-74
2021/04/21 04:43:58;;;;;;;41.00;26.17;;;7.40;94.70;;;;;;5055676;28;20371;-78
2021/04/21 04:46:28;;;;;;;36.55;24.83;;;7.50;94.70;;;;;;5054971;28;20352;-78
2021/04/21 04:49:06;;;;;;;36.78;24.65;;;7.60;94.60;;;;;;5054646;28;20429;-78
2021/04/21 04:51:34;;;;;;;32.50;21.85;;;7.70;94.70;;;;;;5055012;28;20115;-79
2021/04/21 04:54:04;;;;;;;43.35;22.27;;;7.80;94.60;;;;;;5037599;28;20025;-77
2021/04/21 04:56:33;;;;;;;32.85;22.13;;;7.90;94.50;;;;;;5055772;28;20025;-78
2021/04/21 04:59:05;;;;;;;31.30;21.40;;;8.10;94.40;;;;;;5054770;28;20420;-81
2021/04/21 05:01:56;;;;;;;35.67;23.65;;;8.40;94.40;;;;;;5054502;28;20159;-80
2021/04/21 05:04:23;;;;;;;;;;;8.70;94.20;;;;;;5036261;28;20112;-80
2021/04/21 05:06:56;;;;;;;36.53;24.00;;;8.90;94.00;;;;;;5055732;28;19909;-79
2021/04/21 05:09:25;;;;;;;32.28;21.52;;;9.00;93.20;;;;;;5055385;28;20029;-78
2021/04/21 05:11:56;;;;;;;30.25;19.80;;;9.20;93.50;;;;;;5056574;28;20037;-78
2021/04/21 05:14:24;;;;;;;24.92;16.85;;;9.40;93.10;;;;;;5055250;28;20021;-77
2021/04/21 05:17:25;;;;;;;23.70;15.45;;;9.60;92.70;;;;;;5055399;28;20483;-77
2021/04/21 05:20:10;;;;;;;22.63;14.52;;;9.70;92.40;;;;;;5052416;28;20041;-78
2021/04/21 05:22:56;;;;;;;22.40;14.82;;;9.90;91.80;;;;;;5055142;28;20033;-78
2021/04/21 05:25:34;;;;;;;24.95;17.92;;;10.00;91.40;;;;;;5055922;28;20025;-80
2021/04/21 05:28:24;;;;;;;21.30;14.48;;;10.00;91.30;;;;;;5055663;28;20082;-78
2021/04/21 05:31:08;;;;;;;22.10;15.50;;;10.00;91.20;;;;;;5056503;28;20033;-77
2021/04/21 05:33:59;;;;;;;20.85;14.45;;;9.90;91.20;;;;;;5055603;28;20037;-77
2021/04/21 05:36:31;;;;;;;;;;;9.90;91.30;;;;;;5055646;28;20031;-77
2021/04/21 05:39:28;;;;;;;20.70;13.38;;;9.80;91.50;;;;;;5054082;28;19931;-77
2021/04/21 05:42:15;;;;;;;20.90;13.98;;;9.80;91.70;;;;;;5052525;28;20049;-77
2021/04/21 05:45:16;;;;;;;19.13;13.02;;;9.80;91.90;;;;;;5052680;28;20028;-77
2021/04/21 05:48:09;;;;;;;20.60;14.00;;;9.80;91.90;;;;;;5052805;28;20025;-77
2021/04/21 05:51:03;;;;;;;20.92;13.98;;;9.80;91.60;;;;;;5052477;28;20345;-77
2021/04/21 05:54:01;;;;;;;18.20;13.20;;;9.80;91.60;;;;;;5053888;28;20033;-77
2021/04/21 05:56:55;;;;;;;18.25;12.43;;;9.70;91.60;;;;;;5052194;28;20033;-78
2021/04/21 05:59:42;;;;;;;19.65;13.05;;;9.70;91.90;;;;;;5052180;28;20017;-78
2021/04/21 06:02:08;;;;;;;17.25;13.35;;;9.80;91.80;;;;;;5053368;28;20076;-78
2021/04/21 06:04:34;;;;;;;19.25;14.40;;;9.70;91.80;;;;;;5052153;28;20024;-77
2021/04/21 06:07:08;;;;;;;17.17;12.27;;;9.60;92.30;;;;;;5053118;28;20053;-77
2021/04/21 06:09:34;;;;;;;18.33;13.38;;;9.60;92.40;;;;;;5053549;28;20021;-78
2021/04/21 06:12:08;;;;;;;18.08;13.35;;;9.60;92.40;;;;;;5051839;28;20392;-77
2021/04/21 06:14:35;;;;;;;16.30;12.43;;;9.60;92.40;;;;;;5051930;28;20220;-77
2021/04/21 06:17:01;;;;;;;19.13;12.95;;;9.50;92.40;;;;;;5052827;28;20029;-77
2021/04/21 06:19:27;;;;;;;21.08;13.88;;;9.50;92.50;;;;;;5035272;28;20025;-77
2021/04/21 06:21:54;;;;;;;24.75;14.63;;;9.50;92.70;;;;;;5051593;28;20051;-77
2021/04/21 06:24:25;;;;;;;22.42;15.10;;;9.40;92.90;;;;;;5051670;28;20021;-78
2021/04/21 06:27:05;;;;;;;21.55;14.75;;;9.30;93.10;;;;;;5034434;28;20029;-77
2021/04/21 06:29:31;;;;;;;25.20;16.55;;;9.20;93.40;;;;;;5051651;28;20474;-77
2021/04/21 06:32:02;;;;;;;22.70;15.32;;;9.10;93.70;;;;;;5051379;28;20036;-77
2021/04/21 06:34:28;;;;;;;24.45;16.80;;;9.00;93.90;;;;;;5052432;28;20082;-77
2021/04/21 06:36:58;;;;;;;24.52;17.17;;;9.00;94.20;;;;;;5050935;28;20037;-78
2021/04/21 06:39:27;;;;;;;23.10;16.08;;;9.00;94.30;;;;;;5052720;28;20036;-79
2021/04/21 06:42:03;;;;;;;23.85;17.27;;;9.00;94.50;;;;;;5052392;28;20049;-77
2021/04/21 06:44:31;;;;;;;21.98;15.77;;;9.00;94.50;;;;;;5051260;28;20382;-77
2021/04/21 06:46:58;;;;;;;23.23;15.70;;;8.90;94.60;;;;;;5051383;28;20049;-78
2021/04/21 06:49:25;;;;;;;19.40;14.30;;;9.00;94.70;;;;;;5034622;28;20025;-77
2021/04/21 06:51:51;;;;;;;28.88;16.60;;;9.00;94.70;;;;;;5051137;28;20104;-78
2021/04/21 06:54:21;;;;;;;22.02;15.65;;;9.10;94.90;;;;;;5051139;28;20033;-78
2021/04/21 06:56:48;;;;;;;20.70;15.15;;;9.10;95.40;;;;;;5052462;28;20029;-77
2021/04/21 06:59:19;;;;;;;19.60;14.52;;;9.30;94.80;;;;;;5052387;28;20032;-77
2021/04/21 07:01:49;;;;;;;26.70;16.25;;;9.40;94.50;;;;;;5050893;28;20028;-77
2021/04/21 07:04:19;;;;;;;22.95;15.60;;;9.50;94.60;;;;;;5051203;28;20447;-77
2021/04/21 07:06:46;;;;;;;27.60;16.55;;;9.70;94.50;;;;;;5034713;28;20086;-77
2021/04/21 07:09:30;;;;;;;29.60;15.93;;;9.80;94.20;;;;;;5034341;28;20033;-77
2021/04/21 07:11:58;;;;;;;23.08;15.55;;;10.00;94.00;;;;;;5050989;28;20086;-78
2021/04/21 07:14:30;;;;;;;21.45;14.60;;;10.20;94.20;;;;;;5050823;28;20021;-77
2021/04/21 07:16:58;;;;;;;20.73;15.43;;;10.50;93.90;;;;;;5052168;28;20060;-77
2021/04/21 07:19:26;;;;;;;17.80;13.80;;;10.60;93.50;;;;;;5050585;28;20032;-77
2021/04/21 07:21:53;;;;;;;20.52;13.82;;;10.70;93.30;;;;;;5051938;28;20051;-77
2021/04/21 07:24:29;;;;;;;16.67;12.85;;;10.70;93.20;;;;;;5050656;28;20032;-77
2021/04/21 07:26:56;;;;;;;15.70;12.07;;;10.70;92.60;;;;;;5051129;28;20032;-77
2021/04/21 07:29:24;;;;;;;15.65;11.52;;;10.70;92.50;;;;;;5050859;28;20067;-77
2021/04/21 07:31:52;;;;;;;13.05;11.18;;;10.60;92.60;;;;;;5050750;28;20095;-77
2021/04/21 07:34:38;;;;;;;14.73;11.93;;;10.60;92.30;;;;;;5050543;28;20029;-77
2021/04/21 07:37:03;;;;;;;15.15;12.48;;;10.50;92.70;;;;;;5050650;28;20033;-77
2021/04/21 07:39:33;;;;;;;16.35;12.68;;;10.50;92.70;;;;;;5050660;28;20034;-77
2021/04/21 07:42:00;;;;;;;14.63;11.77;;;10.60;92.40;;;;;;5050246;28;20061;-77
2021/04/21 07:44:37;;;;;;;13.65;11.00;;;10.60;92.40;;;;;;5050666;28;20147;-76
2021/04/21 07:47:06;;;;;;;13.70;10.02;;;10.50;92.20;;;;;;5050346;28;20028;-76
2021/04/21 07:49:45;;;;;;;14.95;11.88;;;10.60;92.30;;;;;;5050383;28;20132;-76
2021/04/21 07:52:23;;;;;;;17.85;12.07;;;10.60;91.90;;;;;;5051551;28;20025;-76
2021/04/21 07:54:48;;;;;;;15.50;11.10;;;10.60;91.80;;;;;;5050363;28;20029;-77
2021/04/21 07:57:18;;;;;;;14.38;11.25;;;10.70;91.70;;;;;;5050178;28;20025;-76
2021/04/21 07:59:46;;;;;;;15.27;11.90;;;10.80;91.70;;;;;;5050186;28;20060;-77
2021/04/21 08:02:20;;;;;;;12.80;10.10;;;10.90;91.90;;;;;;5050099;28;20514;-77
2021/04/21 08:04:47;;;;;;;11.13;9.70;;;11.10;91.60;;;;;;5033522;28;20032;-75
2021/04/21 08:07:25;;;;;;;12.80;10.20;;;11.20;91.00;;;;;;5050238;28;20541;-76
2021/04/21 08:09:51;;;;;;;11.23;9.50;;;11.30;90.90;;;;;;5051437;28;20055;-77
2021/04/21 08:12:17;;;;;;;13.27;10.07;;;11.40;91.00;;;;;;5049321;28;20021;-77
2021/04/21 08:14:51;;;;;;;12.48;9.70;;;11.60;91.00;;;;;;5050368;28;20028;-76
2021/04/21 08:17:18;;;;;;;10.65;9.05;;;11.70;90.10;;;;;;5050228;28;20102;-77
2021/04/21 08:19:47;;;;;;;11.77;10.10;;;11.70;89.30;;;;;;5051248;28;20032;-77
2021/04/21 08:22:13;;;;;;;11.07;9.85;;;11.70;88.90;;;;;;5033756;28;20029;-77
2021/04/21 08:24:44;;;;;;;12.60;10.07;;;11.50;89.90;;;;;;5050607;28;20489;-77
2021/04/21 08:27:15;;;;;;;11.43;9.27;;;11.70;89.90;;;;;;5050099;28;20025;-77
2021/04/21 08:29:42;;;;;;;16.17;11.68;;;11.80;89.30;;;;;;5051315;28;20025;-76
2021/04/21 08:32:11;;;;;;;12.05;9.50;;;11.80;89.20;;;;;;5049945;28;20033;-77
2021/04/21 08:34:37;;;;;;;11.50;9.90;;;11.90;87.90;;;;;;5050319;28;20538;-77
2021/04/21 08:37:04;;;;;;;10.93;9.07;;;11.80;88.40;;;;;;5050235;28;20067;-77
2021/04/21 08:39:30;;;;;;;12.13;9.15;;;11.80;87.70;;;;;;5051289;28;20021;-78
2021/04/21 08:42:01;;;;;;;12.20;9.38;;;11.70;88.90;;;;;;5049516;28;20048;-77
2021/04/21 08:44:31;;;;;;;10.70;9.40;;;11.70;88.50;;;;;;5051074;28;20086;-77
2021/04/21 08:47:00;;;;;;;10.20;9.10;;;11.60;88.70;;;;;;5051126;28;20029;-77
2021/04/21 08:49:30;;;;;;;12.02;9.95;;;11.50;89.40;;;;;;5050898;28;20112;-78
2021/04/21 08:51:57;;;;;;;10.93;8.88;;;11.40;90.10;;;;;;5053512;28;20033;-77
2021/04/21 08:54:24;;;;;;;10.82;9.15;;;11.50;90.30;;;;;;5054774;28;20028;-77
2021/04/21 08:56:53;;;;;;;11.73;8.40;;;11.70;90.30;;;;;;5054918;28;20374;-78
2021/04/21 08:59:20;;;;;;;11.32;8.57;;;11.90;90.10;;;;;;5053561;28;20029;-78
2021/04/21 09:01:47;;;;;;;9.57;7.68;;;12.00;89.80;;;;;;5054978;28;20029;-78
2021/04/21 09:04:16;;;;;;;8.70;7.25;;;12.20;90.00;;;;;;5053474;28;20059;-77
2021/04/21 09:06:46;;;;;;;9.73;8.05;;;12.50;87.50;;;;;;5053329;28;20022;-77
2021/04/21 09:09:17;;;;;;;9.25;8.25;;;12.70;86.60;;;;;;5054858;28;20021;-78
2021/04/21 09:11:44;;;;;;;8.68;7.70;;;12.70;85.70;;;;;;5053117;28;20121;-78
2021/04/21 09:14:10;;;;;;;8.82;7.32;;;12.70;84.40;;;;;;5052325;28;20029;-77
2021/04/21 09:16:36;;;;;;;11.40;8.75;;;12.80;84.30;;;;;;5052671;28;20033;-77
2021/04/21 09:19:14;;;;;;;10.60;7.97;;;12.40;83.80;;;;;;5052940;28;20383;-77
2021/04/21 09:21:40;;;;;;;10.93;9.20;;;12.10;84.90;;;;;;5054145;28;20100;-76
2021/04/21 09:24:11;;;;;;;13.10;9.88;;;11.80;85.60;;;;;;5053069;28;20025;-77
2021/04/21 09:26:38;;;;;;;12.43;10.48;;;11.50;87.00;;;;;;5053157;28;20448;-77
2021/04/21 09:29:04;;;;;;;15.05;12.48;;;11.20;87.70;;;;;;5054084;28;20029;-78
2021/04/21 09:31:31;;;;;;;14.23;11.45;;;11.00;88.20;;;;;;5053881;28;20055;-78
2021/04/21 09:34:18;;;;;;;13.40;10.30;;;10.70;90.40;;;;;;5054521;28;20025;-79
2021/04/21 09:36:46;;;;;;;9.13;7.30;;;10.60;90.70;;;;;;5052783;28;20021;-79
2021/04/21 09:39:24;;;;;;;12.90;10.02;;;10.60;90.90;;;;;;5054226;28;20575;-79
2021/04/21 09:42:02;;;;;;;12.18;10.00;;;10.50;91.60;;;;;;5052362;28;20064;-78
2021/04/21 09:44:29;;;;;;;12.30;9.35;;;10.70;91.30;;;;;;5053084;28;20471;-78
2021/04/21 09:47:11;;;;;;;11.40;8.02;;;10.80;91.50;;;;;;5053024;28;20029;-78
2021/04/21 09:49:39;;;;;;;11.68;8.75;;;10.90;91.30;;;;;;5052535;28;20025;-78
2021/04/21 09:52:12;;;;;;;9.20;7.47;;;10.90;91.60;;;;;;5052036;28;20037;-78
2021/04/21 09:54:44;;;;;;;7.78;6.97;;;11.00;91.10;;;;;;5052504;28;20029;-78
2021/04/21 09:57:12;;;;;;;8.98;7.55;;;11.10;90.90;;;;;;5050920;28;20036;-78
2021/04/21 09:59:40;;;;;;;9.45;8.27;;;11.20;91.00;;;;;;5053133;28;20494;-79
2021/04/21 10:02:28;;;;;;;11.30;8.75;;;11.20;91.20;;;;;;5052148;28;20399;-78
2021/04/21 10:04:53;;;;;;;10.43;8.77;;;11.30;91.10;;;;;;5052021;28;20027;-78
2021/04/21 10:07:19;;;;;;;9.57;8.10;;;11.40;91.10;;;;;;5051511;28;20025;-79
2021/04/21 10:09:49;;;;;;;10.63;8.50;;;11.60;91.30;;;;;;5053344;28;20543;-78
2021/04/21 10:12:22;;;;;;;9.75;8.02;;;11.70;91.30;;;;;;5051877;28;20032;-78
2021/04/21 10:15:09;;;;;;;7.68;6.72;;;11.90;90.90;;;;;;5051974;28;20112;-77
2021/04/21 10:17:43;;;;;;;8.65;6.90;;;12.00;89.40;;;;;;5051814;28;20033;-75
2021/04/21 10:20:14;;;;;;;8.25;6.80;;;12.20;88.50;;;;;;5052074;28;20021;-77
2021/04/21 10:22:42;;;;;;;7.70;6.13;;;12.20;87.30;;;;;;5052853;28;20120;-77
2021/04/21 10:25:10;;;;;;;7.07;6.20;;;12.30;87.90;;;;;;5053080;28;20025;-77
2021/04/21 10:27:36;;;;;;;8.98;6.00;;;12.50;87.50;;;;;;5051855;28;20115;-77
2021/04/21 10:30:07;;;;;;;6.90;5.30;;;12.80;85.50;;;;;;5051629;28;20431;-77
2021/04/21 10:32:35;;;;;;;5.82;5.22;;;13.10;85.70;;;;;;5051451;28;20116;-78
2021/04/21 10:35:01;;;;;;;5.30;4.80;;;13.30;83.90;;;;;;5035076;28;20029;-77
2021/04/21 10:37:33;;;;;;;5.68;5.10;;;13.50;83.30;;;;;;5052531;28;20029;-77
2021/04/21 10:39:59;;;;;;;6.90;5.93;;;13.70;81.50;;;;;;5051073;28;20032;-77
2021/04/21 10:42:25;;;;;;;7.80;5.78;;;13.80;80.20;;;;;;5051052;28;20048;-77
2021/04/21 10:45:11;;;;;;;6.65;5.80;;;13.70;80.80;;;;;;5051264;28;20021;-78
2021/04/21 10:47:47;;;;;;;6.80;5.28;;;13.60;80.80;;;;;;5051578;28;20055;-78
2021/04/21 10:50:14;;;;;;;5.85;5.25;;;13.60;79.80;;;;;;5035203;28;20030;-77
2021/04/21 10:52:43;;;;;;;5.85;5.22;;;13.60;77.30;;;;;;5034810;28;20064;-77
2021/04/21 10:55:09;;;;;;;5.20;4.70;;;13.40;76.30;;;;;;5052311;28;20078;-77
2021/04/21 10:57:42;;;;;;;6.95;5.55;;;13.40;74.80;;;;;;5052500;28;20043;-77
2021/04/21 11:00:24;;;;;;;6.30;5.13;;;13.30;76.20;;;;;;5051187;28;20032;-77
2021/04/21 11:02:56;;;;;;;6.15;5.40;;;13.30;75.30;;;;;;5050726;28;20063;-76
2021/04/21 11:05:44;;;;;;;6.15;5.20;;;13.30;75.20;;;;;;5051834;28;20029;-78
2021/04/21 11:08:17;;;;;;;5.68;4.80;;;13.20;76.20;;;;;;5051274;28;20024;-76
2021/04/21 11:10:46;;;;;;;5.30;4.38;;;13.20;77.60;;;;;;5050898;28;20475;-77
2021/04/21 11:13:15;;;;;;;5.70;4.93;;;13.30;77.40;;;;;;5051914;28;20086;-77
2021/04/21 11:15:52;;;;;;;5.00;4.50;;;13.30;77.80;;;;;;5052713;28;20100;-77
2021/04/21 11:18:34;;;;;;;4.78;4.38;;;13.50;79.00;;;;;;5052264;28;20040;-77
2021/04/21 11:21:00;;;;;;;5.10;4.35;;;13.60;77.50;;;;;;5052136;28;20028;-77
2021/04/21 11:23:55;;;;;;;5.72;5.15;;;13.50;77.20;;;;;;5052250;28;20028;-77
2021/04/21 11:26:27;;;;;;;4.65;4.20;;;13.40;75.00;;;;;;5052836;28;20021;-77
2021/04/21 11:29:05;;;;;;;5.43;4.93;;;13.40;73.10;;;;;;5052429;28;20490;-77
2021/04/21 11:31:39;;;;;;;5.95;4.63;;;13.20;72.60;;;;;;5052442;28;20029;-77
2021/04/21 11:34:30;;;;;;;6.60;5.10;;;13.20;72.30;;;;;;5053239;28;20049;-78
2021/04/21 11:37:09;;;;;;;8.48;6.53;;;13.10;73.60;;;;;;5043595;28;20038;-77
2021/04/21 11:42:15;;;;;;;6.45;5.75;;;13.00;78.70;;;;;;5053000;28;20049;-76
2021/04/21 11:45:06;;;;;;;7.95;6.50;;;12.70;82.10;;;;;;5053411;28;20025;-75
2021/04/21 11:47:45;;;;;;;10.60;8.35;;;12.10;85.00;;;;;;5051900;28;20459;-74
2021/04/21 11:50:16;;;;;;;12.63;7.95;;;11.70;86.10;;;;;;5051800;28;20544;-74
2021/04/21 11:52:57;;;;;;;7.65;5.88;;;11.40;86.90;;;;;;5053062;28;20105;-75
2021/04/21 11:56:12;;;;;;;6.60;5.90;;;11.10;86.00;;;;;;5052076;28;20021;-75
2021/04/21 11:58:38;;;;;;;6.57;5.90;;;11.00;87.70;;;;;;5052641;28;20471;-76
2021/04/21 12:01:11;;;;;;;11.23;8.45;;;11.00;88.00;;;;;;5051659;28;20025;-75
2021/04/21 12:03:43;;;;;;;10.20;7.97;;;11.10;90.30;;;;;;5051608;28;20414;-76
2021/04/21 12:06:17;;;;;;;13.02;9.40;;;11.30;89.90;;;;;;5035064;28;20040;-77
2021/04/21 12:08:47;;;;;;;7.30;6.53;;;11.40;90.10;;;;;;5052969;28;20025;-76
2021/04/21 12:11:13;;;;;;;9.07;6.88;;;11.60;90.10;;;;;;5052220;28;20028;-75
2021/04/21 12:13:44;;;;;;;8.25;6.55;;;11.70;90.10;;;;;;5052739;28;20095;-75
2021/04/21 12:16:18;;;;;;;8.63;6.07;;;12.00;89.90;;;;;;5051544;28;20471;-75
2021/04/21 12:18:55;;;;;;;6.88;5.15;;;12.20;89.50;;;;;;5052456;28;20379;-76
2021/04/21 12:21:32;;;;;;;5.68;4.20;;;12.50;87.90;;;;;;5051507;28;20024;-75
2021/04/21 12:23:59;;;;;;;5.53;4.40;;;12.90;86.80;;;;;;5051668;28;20029;-76
2021/04/21 12:26:42;;;;;;;5.63;4.60;;;13.20;86.50;;;;;;5056456;28;20032;-75
2021/04/21 12:29:12;;;;;;;4.40;4.00;;;13.50;85.00;;;;;;5056558;28;20029;-75
2021/04/21 12:31:39;;;;;;;5.00;4.40;;;13.80;82.10;;;;;;5055511;28;20052;-75
2021/04/21 12:34:06;;;;;;;7.78;4.15;;;14.00;76.80;;;;;;5056455;28;20043;-75
2021/04/21 12:36:34;;;;;;;4.20;3.80;;;14.00;77.20;;;;;;5055321;28;20390;-76
2021/04/21 12:39:06;;;;;;;5.05;4.18;;;14.20;78.30;;;;;;5055183;28;20068;-75
2021/04/21 12:41:33;;;;;;;5.15;4.63;;;14.50;76.40;;;;;;5056183;28;20029;-77
2021/04/21 12:44:21;;;;;;;3.80;3.50;;;14.60;75.90;;;;;;5055054;28;20100;-75
2021/04/21 12:46:49;;;;;;;3.80;3.40;;;14.70;73.10;;;;;;5055022;28;20025;-76
2021/04/21 12:49:26;;;;;;;4.25;3.67;;;14.80;73.00;;;;;;5054948;28;20025;-75
2021/04/21 12:51:52;;;;;;;3.85;3.35;;;15.00;73.20;;;;;;5055751;28;20425;-76
2021/04/21 12:54:34;;;;;;;5.25;4.22;;;15.20;73.70;;;;;;5054666;28;20021;-76
2021/04/21 12:57:01;;;;;;;5.35;3.83;;;15.30;74.40;;;;;;5054873;28;20032;-76
2021/04/21 12:59:27;;;;;;;4.10;3.70;;;15.80;69.10;;;;;;5054863;28;20074;-77
2021/04/21 13:01:53;;;;;;;5.97;4.20;;;16.10;68.70;;;;;;5054289;28;20032;-76
2021/04/21 13:04:19;;;;;;;4.40;3.88;;;16.30;64.70;;;;;;5056610;28;20017;-76
2021/04/21 13:06:48;;;;;;;5.05;4.10;;;16.30;63.50;;;;;;5054676;28;20490;-75
2021/04/21 13:09:27;;;;;;;4.53;4.13;;;16.10;63.80;;;;;;5054729;28;20032;-75
2021/04/21 13:12:03;;;;;;;4.68;3.85;;;15.80;65.50;;;;;;5054418;28;20082;-75
2021/04/21 13:14:41;;;;;;;5.88;4.35;;;15.60;67.90;;;;;;5054747;28;20028;-76
2021/04/21 13:17:09;;;;;;;7.05;5.25;;;15.40;69.30;;;;;;5054314;28;20021;-75